Time;durP1;ratioP1;P1;durP2;ratioP2;P2;SDS_P1;SDS_P2;PMS_P1;PMS_P2;Temp;Humidity;BMP_temperature;BMP_pressure;BME280_temperature;BME280_humidity;BME280_pressure;Samples;Min_cycle;Max_cycle;Signal;HPM_P1;HPM_P2
2022/04/06 00:00:40;;;;;;;4.35;2.70;;;18.90;99.90;;;;;;4247753;27;20205;-75
2022/04/06 00:02:43;;;;;;;5.10;2.60;;;19.00;99.90;;;;;;4246516;27;20217;-75
2022/04/06 00:04:46;;;;;;;5.75;2.80;;;18.90;99.90;;;;;;4247224;27;20621;-75
2022/04/06 00:06:52;;;;;;;7.05;2.85;;;18.90;99.90;;;;;;4244052;27;20209;-75
2022/04/06 00:08:55;;;;;;;4.55;2.90;;;18.90;99.90;;;;;;4249544;27;20262;-75
2022/04/06 00:10:57;;;;;;;5.88;2.45;;;19.00;99.90;;;;;;4248337;27;20213;-75
2022/04/06 00:13:00;;;;;;;3.85;2.22;;;18.90;99.90;;;;;;4247867;27;20213;-75
2022/04/06 00:15:03;;;;;;;6.43;2.65;;;18.90;99.90;;;;;;4247927;27;20241;-75
2022/04/06 00:17:07;;;;;;;5.63;2.58;;;18.90;99.90;;;;;;4247661;27;20609;-75
2022/04/06 00:19:10;;;;;;;7.13;3.08;;;18.90;99.90;;;;;;4247641;27;20221;-75
2022/04/06 00:21:14;;;;;;;6.68;3.15;;;18.90;99.90;;;;;;4246454;27;20221;-75
2022/04/06 00:23:16;;;;;;;5.85;2.30;;;18.90;99.90;;;;;;4247451;27;20220;-75
2022/04/06 00:25:18;;;;;;;4.15;2.30;;;18.90;99.90;;;;;;4247451;27;20213;-75
2022/04/06 00:27:21;;;;;;;4.78;2.42;;;18.90;99.90;;;;;;4246832;27;20264;-75
2022/04/06 00:29:23;;;;;;;4.32;2.50;;;18.90;99.90;;;;;;4247181;27;20622;-75
2022/04/06 00:31:26;;;;;;;6.72;2.95;;;18.90;99.90;;;;;;4244093;27;20221;-75
2022/04/06 00:33:28;;;;;;;6.75;2.72;;;18.90;99.90;;;;;;4246891;27;20254;-75
2022/04/06 00:35:30;;;;;;;6.45;2.58;;;18.90;99.90;;;;;;4246248;27;20282;-75
2022/04/06 00:37:34;;;;;;;5.70;2.72;;;18.90;99.90;;;;;;4243285;27;20629;-75
2022/04/06 00:39:37;;;;;;;5.05;2.25;;;18.90;99.90;;;;;;4245830;27;20661;-75
2022/04/06 00:41:40;;;;;;;5.10;2.35;;;18.90;99.90;;;;;;4245310;27;20218;-75
2022/04/06 00:43:42;;;;;;;7.47;3.03;;;18.90;99.90;;;;;;4247023;27;20217;-75
2022/04/06 00:45:45;;;;;;;5.00;2.45;;;18.90;99.90;;;;;;4245890;27;20250;-75
2022/04/06 00:47:47;;;;;;;5.00;2.25;;;18.90;99.90;;;;;;4247125;27;20320;-75
2022/04/06 00:49:50;;;;;;;5.40;2.42;;;18.90;99.90;;;;;;4247065;27;20270;-75
2022/04/06 00:51:52;;;;;;;5.47;2.65;;;18.90;99.90;;;;;;4246016;27;20233;-75
2022/04/06 00:53:56;;;;;;;5.43;2.50;;;18.80;99.90;;;;;;4242923;27;20225;-75
2022/04/06 00:55:59;;;;;;;4.07;2.38;;;18.90;99.90;;;;;;4246374;27;20228;-75
2022/04/06 00:58:01;;;;;;;6.32;2.80;;;18.90;99.90;;;;;;4245744;27;20213;-75
2022/04/06 01:00:05;;;;;;;3.88;2.05;;;18.80;99.90;;;;;;4247005;27;20345;-75
2022/04/06 01:02:08;;;;;;;7.10;2.70;;;18.80;99.90;;;;;;4246392;27;20209;-75
2022/04/06 01:04:10;;;;;;;5.95;2.50;;;18.80;99.90;;;;;;4243778;27;20217;-75
2022/04/06 01:06:13;;;;;;;5.55;2.42;;;18.80;99.90;;;;;;4246795;27;20205;-75
2022/04/06 01:08:16;;;;;;;6.07;2.63;;;18.80;99.90;;;;;;4244868;27;20270;-75
2022/04/06 01:10:20;;;;;;;4.95;2.67;;;18.80;99.90;;;;;;4246323;27;20217;-75
2022/04/06 01:12:23;;;;;;;5.85;2.72;;;18.80;99.90;;;;;;4241592;27;20254;-75
2022/04/06 01:14:25;;;;;;;5.82;2.70;;;18.80;99.90;;;;;;4245555;27;20217;-75
2022/04/06 01:16:28;;;;;;;6.45;2.90;;;18.80;99.90;;;;;;4246541;27;20700;-75
2022/04/06 01:18:32;;;;;;;9.20;3.15;;;18.80;99.90;;;;;;4245991;27;20278;-75
2022/04/06 01:20:35;;;;;;;4.35;2.47;;;18.80;99.90;;;;;;4244070;27;20625;-75
2022/04/06 01:22:38;;;;;;;6.20;2.88;;;18.80;99.90;;;;;;4246564;27;20254;-75
2022/04/06 01:24:41;;;;;;;5.55;2.42;;;18.80;99.90;;;;;;4245118;27;20661;-75
2022/04/06 01:26:43;;;;;;;7.20;2.90;;;18.80;99.90;;;;;;4246298;27;20205;-75
2022/04/06 01:28:46;;;;;;;5.30;2.53;;;18.80;99.90;;;;;;4243781;27;20676;-75
2022/04/06 01:30:48;;;;;;;6.38;2.88;;;18.80;99.90;;;;;;4244087;27;20213;-75
2022/04/06 01:32:50;;;;;;;6.28;2.60;;;18.80;99.90;;;;;;4245100;27;20629;-75
2022/04/06 01:34:56;;;;;;;7.78;2.88;;;18.80;99.90;;;;;;4245139;27;20622;-75
2022/04/06 01:36:58;;;;;;;5.85;2.55;;;18.80;99.90;;;;;;4244878;27;20233;-75
2022/04/06 01:39:02;;;;;;;5.55;2.47;;;18.80;99.90;;;;;;4244899;27;20213;-75
2022/04/06 01:41:04;;;;;;;6.38;2.60;;;18.80;99.90;;;;;;4245272;27;20217;-75
2022/04/06 01:43:07;;;;;;;6.35;2.13;;;18.80;99.90;;;;;;4244713;27;20213;-75
2022/04/06 01:45:10;;;;;;;5.90;2.95;;;18.80;99.90;;;;;;4244175;27;20234;-75
2022/04/06 01:47:13;;;;;;;7.20;2.35;;;18.80;99.90;;;;;;4243959;27;20265;-75
2022/04/06 01:53:59;;;;;;;5.95;2.30;;;18.70;99.90;;;;;;4245637;27;20205;-75
2022/04/06 01:56:03;;;;;;;5.57;2.80;;;18.70;99.90;;;;;;4241786;27;20289;-75
2022/04/06 01:58:06;;;;;;;5.32;2.92;;;18.80;99.90;;;;;;4243668;27;20665;-75
2022/04/06 02:00:12;;;;;;;5.88;2.70;;;18.70;99.90;;;;;;4244720;27;20261;-75
2022/04/06 02:02:17;;;;;;;7.03;2.78;;;18.70;99.90;;;;;;4244543;27;20209;-75
2022/04/06 02:04:19;;;;;;;4.30;2.42;;;18.70;99.90;;;;;;4246060;27;20725;-75
2022/04/06 02:06:21;;;;;;;6.70;2.50;;;18.70;99.90;;;;;;4244066;27;20209;-75
2022/04/06 02:08:24;;;;;;;5.85;2.90;;;18.70;99.90;;;;;;4244676;27;20213;-75
2022/04/06 02:10:27;;;;;;;5.65;2.70;;;18.70;99.90;;;;;;4245379;27;20226;-75
2022/04/06 02:12:31;;;;;;;6.55;2.50;;;18.70;99.90;;;;;;4245489;27;20209;-75
2022/04/06 02:14:34;;;;;;;5.85;2.67;;;18.70;99.90;;;;;;4244815;27;20657;-75
2022/04/06 02:16:38;;;;;;;5.03;2.10;;;18.70;99.90;;;;;;4245798;27;20669;-75
2022/04/06 02:18:40;;;;;;;5.53;2.63;;;18.70;99.90;;;;;;4243971;27;20226;-75
2022/04/06 02:20:42;;;;;;;6.25;3.08;;;18.70;99.90;;;;;;4240711;27;20213;-75
2022/04/06 02:22:45;;;;;;;6.97;2.63;;;18.70;99.90;;;;;;4242661;27;20274;-75
2022/04/06 02:24:47;;;;;;;5.15;2.50;;;18.70;99.90;;;;;;4245630;27;20209;-75
2022/04/06 02:26:50;;;;;;;6.38;2.60;;;18.70;99.90;;;;;;4245259;27;20273;-75
2022/04/06 02:28:54;;;;;;;6.18;2.72;;;18.60;99.90;;;;;;4245505;27;20209;-75
2022/04/06 02:30:56;;;;;;;5.80;2.80;;;18.60;99.90;;;;;;4244977;27;20221;-75
2022/04/06 02:32:58;;;;;;;5.28;2.50;;;18.70;99.90;;;;;;4244563;27;20265;-75
2022/04/06 02:35:01;;;;;;;6.30;2.60;;;18.60;99.90;;;;;;4245381;27;20269;-75
2022/04/06 02:37:04;;;;;;;5.00;2.60;;;18.60;99.90;;;;;;4243952;27;20236;-75
2022/04/06 02:39:06;;;;;;;4.93;2.53;;;18.70;99.90;;;;;;4244870;27;20561;-75
2022/04/06 02:41:09;;;;;;;5.82;2.70;;;18.60;99.90;;;;;;4245448;27;20220;-75
2022/04/06 02:43:11;;;;;;;6.10;2.13;;;18.60;99.90;;;;;;4243147;27;20213;-75
2022/04/06 02:45:15;;;;;;;5.57;2.42;;;18.60;99.90;;;;;;4245295;27;20205;-75
2022/04/06 02:47:17;;;;;;;5.57;2.10;;;18.60;99.90;;;;;;4244516;28;20240;-75
2022/04/06 02:49:20;;;;;;;6.78;3.03;;;18.60;99.90;;;;;;4242817;28;20217;-75
2022/04/06 02:51:22;;;;;;;6.28;2.85;;;18.70;99.90;;;;;;4243654;27;20286;-75
2022/04/06 02:53:25;;;;;;;5.32;2.28;;;18.60;99.90;;;;;;4242984;27;20641;-73
2022/04/06 02:55:27;;;;;;;5.40;2.38;;;18.60;99.90;;;;;;4242710;27;20220;-72
2022/04/06 02:57:29;;;;;;;5.50;2.35;;;18.60;99.90;;;;;;4244532;28;20285;-72
2022/04/06 02:59:31;;;;;;;6.10;2.33;;;18.60;99.90;;;;;;4244207;28;20217;-72
2022/04/06 03:01:35;;;;;;;5.20;2.50;;;18.60;99.90;;;;;;4243813;28;20603;-72
2022/04/06 03:03:37;;;;;;;7.85;2.67;;;18.60;99.90;;;;;;4244323;27;20614;-72
2022/04/06 03:05:40;;;;;;;4.63;2.20;;;18.60;99.90;;;;;;4242161;27;20209;-72
2022/04/06 03:07:42;;;;;;;5.22;2.20;;;18.60;99.90;;;;;;4242235;28;20561;-72
2022/04/06 03:09:45;;;;;;;6.22;2.30;;;18.60;99.90;;;;;;4240932;28;21763;-72
2022/04/06 03:11:47;;;;;;;5.05;2.33;;;18.60;99.90;;;;;;4244602;27;20273;-72
2022/04/06 03:13:50;;;;;;;6.05;2.35;;;18.60;99.90;;;;;;4243135;28;20213;-72
2022/04/06 03:15:52;;;;;;;5.70;2.42;;;18.60;99.90;;;;;;4241744;27;20209;-72
2022/04/06 03:17:56;;;;;;;5.38;2.33;;;18.60;99.90;;;;;;4243904;27;20245;-72
2022/04/06 03:19:58;;;;;;;4.85;2.33;;;18.60;99.90;;;;;;4243548;28;20213;-72
2022/04/06 03:22:01;;;;;;;8.18;2.70;;;18.60;99.90;;;;;;4243715;27;20642;-73
2022/04/06 03:24:03;;;;;;;5.05;2.35;;;18.60;99.90;;;;;;4242868;27;20209;-72
2022/04/06 03:26:05;;;;;;;4.88;2.15;;;18.60;99.90;;;;;;4242971;28;20265;-72
2022/04/06 03:28:08;;;;;;;5.47;2.28;;;18.60;99.90;;;;;;4241622;28;20251;-72
2022/04/06 03:30:12;;;;;;;3.97;2.20;;;18.60;99.90;;;;;;4239953;28;20217;-72
2022/04/06 03:32:14;;;;;;;5.55;2.35;;;18.50;99.90;;;;;;4242635;27;20258;-72
2022/04/06 03:34:18;;;;;;;4.13;2.40;;;18.50;99.90;;;;;;4246917;27;21018;-73
2022/04/06 03:36:20;;;;;;;5.00;2.30;;;18.60;99.90;;;;;;4246012;27;20205;-73
2022/04/06 03:38:22;;;;;;;6.68;2.47;;;18.50;99.90;;;;;;4247015;27;20213;-72
2022/04/06 03:40:25;;;;;;;4.85;2.38;;;18.60;99.90;;;;;;4245298;27;20209;-72
2022/04/06 03:42:27;;;;;;;8.65;2.60;;;18.50;99.90;;;;;;4247402;27;20262;-72
2022/04/06 03:44:30;;;;;;;5.70;2.47;;;18.50;99.90;;;;;;4243021;27;20218;-72
2022/04/06 03:46:32;;;;;;;6.65;2.80;;;18.50;99.90;;;;;;4244892;27;20205;-72
2022/04/06 03:48:35;;;;;;;4.60;2.33;;;18.50;99.90;;;;;;4246011;27;20209;-72
2022/04/06 03:50:39;;;;;;;7.43;2.53;;;18.50;99.90;;;;;;4247137;27;20209;-72
2022/04/06 03:52:41;;;;;;;5.25;2.20;;;18.60;99.90;;;;;;4247485;27;20213;-72
2022/04/06 03:54:46;;;;;;;6.80;2.28;;;18.50;99.90;;;;;;4244835;27;20213;-72
2022/04/06 03:56:49;;;;;;;5.88;2.30;;;18.50;99.90;;;;;;4246854;27;20233;-72
2022/04/06 03:58:51;;;;;;;4.38;2.03;;;18.50;99.90;;;;;;4246541;27;20221;-72
2022/04/06 04:00:53;;;;;;;4.57;2.22;;;18.50;99.90;;;;;;4244691;27;20221;-72
2022/04/06 04:02:55;;;;;;;5.82;2.22;;;18.50;99.90;;;;;;4246738;27;20213;-72
2022/04/06 04:04:58;;;;;;;4.70;2.40;;;18.50;99.90;;;;;;4245811;27;20270;-72
2022/04/06 04:07:02;;;;;;;7.43;2.78;;;18.50;99.90;;;;;;4243346;27;20209;-72
2022/04/06 04:09:05;;;;;;;7.68;2.53;;;18.50;99.90;;;;;;4245851;27;20273;-72
2022/04/06 04:11:07;;;;;;;5.13;2.17;;;18.50;99.90;;;;;;4246718;27;20262;-72
2022/04/06 04:13:11;;;;;;;6.05;2.33;;;18.50;99.90;;;;;;4244916;27;20653;-72
2022/04/06 04:15:13;;;;;;;4.95;2.15;;;18.50;99.90;;;;;;4245851;27;20677;-72
2022/04/06 04:17:16;;;;;;;5.03;2.28;;;18.50;99.90;;;;;;4245205;27;20241;-72
2022/04/06 04:19:19;;;;;;;4.55;2.03;;;18.50;99.90;;;;;;4244478;27;20595;-72
2022/04/06 04:21:33;;;;;;;7.50;2.53;;;18.50;99.90;;;;;;4245668;27;20274;-72
2022/04/06 04:23:37;;;;;;;5.72;2.25;;;18.50;99.90;;;;;;4247204;27;20213;-72
2022/04/06 04:25:39;;;;;;;6.20;2.22;;;18.50;99.90;;;;;;4243873;27;20218;-72
2022/04/06 04:27:42;;;;;;;4.18;1.80;;;18.50;99.90;;;;;;4246486;27;20262;-72
2022/04/06 04:29:44;;;;;;;5.70;2.50;;;18.50;99.90;;;;;;4246434;27;20205;-72
2022/04/06 04:31:47;;;;;;;3.50;1.85;;;18.50;99.90;;;;;;4246331;27;20205;-73
2022/04/06 04:33:49;;;;;;;5.20;2.22;;;18.50;99.90;;;;;;4243709;27;20238;-72
2022/04/06 04:35:54;;;;;;;4.55;2.20;;;18.50;99.90;;;;;;4246305;27;20599;-72
2022/04/06 04:37:56;;;;;;;5.30;2.40;;;18.50;99.90;;;;;;4246685;27;20987;-72
2022/04/06 04:39:59;;;;;;;6.85;2.63;;;18.50;99.90;;;;;;4242770;27;20209;-72
2022/04/06 04:42:02;;;;;;;5.47;2.15;;;18.50;99.90;;;;;;4246665;27;20286;-72
2022/04/06 04:44:04;;;;;;;5.53;2.42;;;18.40;99.90;;;;;;4245491;27;20878;-72
2022/04/06 04:46:07;;;;;;;5.03;2.20;;;18.40;99.90;;;;;;4246255;27;20216;-72
2022/04/06 04:48:09;;;;;;;5.28;2.00;;;18.40;99.90;;;;;;4246512;27;20213;-73
2022/04/06 04:50:12;;;;;;;5.05;2.22;;;18.40;99.90;;;;;;4244330;27;20221;-72
2022/04/06 04:52:14;;;;;;;6.05;2.72;;;18.40;99.90;;;;;;4245250;27;20630;-72
2022/04/06 04:54:17;;;;;;;5.45;2.30;;;18.40;99.90;;;;;;4246102;27;20209;-72
2022/04/06 04:56:20;;;;;;;3.55;1.70;;;18.40;99.90;;;;;;4245200;27;20213;-72
2022/04/06 04:58:23;;;;;;;7.07;2.10;;;18.40;99.90;;;;;;4244744;27;20232;-72
2022/04/06 05:00:26;;;;;;;5.10;2.17;;;18.40;99.90;;;;;;4246454;27;20227;-72
2022/04/06 05:02:28;;;;;;;6.20;1.90;;;18.50;99.90;;;;;;4245709;27;21983;-72
2022/04/06 05:04:30;;;;;;;6.72;2.70;;;18.40;99.90;;;;;;4244855;27;20649;-72
2022/04/06 05:06:33;;;;;;;5.07;1.95;;;18.40;99.90;;;;;;4244112;27;20254;-72
2022/04/06 05:08:35;;;;;;;5.47;2.08;;;18.50;99.90;;;;;;4245102;27;20209;-72
2022/04/06 05:10:37;;;;;;;4.25;1.83;;;18.50;99.90;;;;;;4243638;27;20209;-72
2022/04/06 05:12:41;;;;;;;7.10;2.30;;;18.50;99.90;;;;;;4243838;27;20213;-72
2022/04/06 05:14:43;;;;;;;3.80;2.17;;;18.40;99.90;;;;;;4245573;27;20811;-72
2022/04/06 05:16:46;;;;;;;5.72;2.05;;;18.40;99.90;;;;;;4244943;27;20617;-72
2022/04/06 05:18:48;;;;;;;4.75;2.08;;;18.50;99.90;;;;;;4245757;27;20274;-72
2022/04/06 05:20:52;;;;;;;4.32;2.05;;;18.40;99.90;;;;;;4244832;27;20221;-72
2022/04/06 05:22:54;;;;;;;4.95;1.95;;;18.50;99.90;;;;;;4244676;27;20221;-72
2022/04/06 05:24:56;;;;;;;4.90;2.10;;;18.50;99.90;;;;;;4245838;27;21572;-73
2022/04/06 05:27:00;;;;;;;5.70;1.95;;;18.50;99.90;;;;;;4244301;27;20286;-72
2022/04/06 05:29:03;;;;;;;3.78;2.20;;;18.50;99.90;;;;;;4245276;27;20254;-72
2022/04/06 05:31:06;;;;;;;6.13;2.10;;;18.50;99.90;;;;;;4241772;27;21004;-73
2022/04/06 05:33:09;;;;;;;3.58;1.90;;;18.50;99.90;;;;;;4244391;27;20238;-72
2022/04/06 05:35:12;;;;;;;5.35;2.05;;;18.40;99.90;;;;;;4245484;27;20221;-72
2022/04/06 05:37:15;;;;;;;3.05;1.80;;;18.40;99.90;;;;;;4243607;27;20221;-72
2022/04/06 05:39:17;;;;;;;5.43;1.85;;;18.40;99.90;;;;;;4244901;27;20236;-73
2022/04/06 05:41:19;;;;;;;4.63;2.30;;;18.40;99.90;;;;;;4245433;27;20258;-73
2022/04/06 05:43:22;;;;;;;4.32;2.05;;;18.50;99.90;;;;;;4240283;27;20626;-73
2022/04/06 05:45:25;;;;;;;4.35;1.98;;;18.40;99.90;;;;;;4245192;27;20221;-73
2022/04/06 05:47:28;;;;;;;3.33;1.65;;;18.50;99.90;;;;;;4243563;27;20217;-73
2022/04/06 05:49:30;;;;;;;4.00;1.80;;;18.40;99.90;;;;;;4243885;27;20278;-72
2022/04/06 05:51:34;;;;;;;3.58;1.65;;;18.50;99.90;;;;;;4243197;27;20631;-73
2022/04/06 05:53:36;;;;;;;4.03;1.83;;;18.50;99.90;;;;;;4216682;28;20260;-73
2022/04/06 05:55:39;;;;;;;4.50;2.22;;;18.40;99.90;;;;;;4216827;28;20269;-72
2022/04/06 05:57:41;;;;;;;3.10;1.67;;;18.50;99.90;;;;;;4218724;28;20207;-73
2022/04/06 05:59:44;;;;;;;3.78;1.77;;;18.50;99.90;;;;;;4220000;28;20268;-73
2022/04/06 06:01:48;;;;;;;3.58;1.85;;;18.50;99.90;;;;;;4212244;28;20255;-72
2022/04/06 06:03:51;;;;;;;4.95;2.13;;;18.40;99.90;;;;;;4241095;27;20274;-73
2022/04/06 06:05:53;;;;;;;5.05;2.10;;;18.50;99.90;;;;;;4241801;27;20217;-72
2022/04/06 06:07:56;;;;;;;4.95;1.88;;;18.50;99.90;;;;;;4241050;27;20258;-73
2022/04/06 06:09:58;;;;;;;3.72;1.90;;;18.40;99.90;;;;;;4243612;27;20213;-73
2022/04/06 06:12:00;;;;;;;6.40;2.03;;;18.50;99.90;;;;;;4243003;27;20221;-72
2022/04/06 06:14:03;;;;;;;4.15;2.22;;;18.50;99.90;;;;;;4243300;27;20281;-73
2022/04/06 06:16:06;;;;;;;4.78;1.77;;;18.50;99.90;;;;;;4242614;27;20269;-73
2022/04/06 06:18:09;;;;;;;6.90;2.20;;;18.50;99.90;;;;;;4244314;27;20652;-73
2022/04/06 06:20:12;;;;;;;2.80;1.52;;;18.50;99.90;;;;;;4243955;27;20217;-72
2022/04/06 06:22:14;;;;;;;4.50;1.88;;;18.50;99.90;;;;;;4243800;27;20270;-72
2022/04/06 06:24:17;;;;;;;3.40;1.73;;;18.50;99.90;;;;;;4240903;27;20205;-72
2022/04/06 06:26:19;;;;;;;4.63;2.03;;;18.50;99.90;;;;;;4243581;27;20254;-73
2022/04/06 06:28:21;;;;;;;3.55;1.83;;;18.40;99.90;;;;;;4242936;27;20254;-72
2022/04/06 06:30:26;;;;;;;5.07;1.40;;;18.40;99.90;;;;;;4242522;27;20213;-72
2022/04/06 06:32:29;;;;;;;3.38;1.40;;;18.50;99.90;;;;;;4244506;27;20212;-72
2022/04/06 06:34:32;;;;;;;4.30;1.70;;;18.50;99.90;;;;;;4242831;27;20764;-72
2022/04/06 06:36:35;;;;;;;2.75;1.80;;;18.50;99.90;;;;;;4242996;27;20212;-72
2022/04/06 06:38:37;;;;;;;3.92;1.80;;;18.60;99.90;;;;;;4244114;27;20286;-72
2022/04/06 06:40:41;;;;;;;3.65;1.50;;;18.60;99.90;;;;;;4243805;27;20205;-72
2022/04/06 06:42:43;;;;;;;3.47;1.48;;;18.60;99.90;;;;;;4244011;27;21298;-72
2022/04/06 06:44:45;;;;;;;2.90;1.70;;;18.70;99.90;;;;;;4242584;27;20229;-72
2022/04/06 06:46:48;;;;;;;3.60;1.83;;;18.70;99.90;;;;;;4243609;27;20665;-72
2022/04/06 06:48:51;;;;;;;3.38;1.70;;;18.80;99.90;;;;;;4243890;28;20250;-72
2022/04/06 06:50:55;;;;;;;3.55;1.60;;;18.80;99.90;;;;;;4241155;28;20213;-73
2022/04/06 06:52:57;;;;;;;2.78;1.50;;;18.80;99.90;;;;;;4244283;27;20217;-72
2022/04/06 06:54:59;;;;;;;4.03;1.30;;;18.80;99.90;;;;;;4242589;27;20213;-72
2022/04/06 06:57:02;;;;;;;3.95;1.50;;;18.90;99.90;;;;;;4243566;27;20209;-73
2022/04/06 06:59:04;;;;;;;3.83;1.20;;;18.90;99.90;;;;;;4243791;27;21007;-72
2022/04/06 07:01:06;;;;;;;3.17;1.52;;;18.90;99.90;;;;;;4243097;27;20250;-73
2022/04/06 07:03:08;;;;;;;2.30;1.30;;;18.90;99.90;;;;;;4242945;27;20325;-74
2022/04/06 07:05:12;;;;;;;5.88;1.75;;;18.90;99.90;;;;;;4244383;27;20213;-73
2022/04/06 07:07:16;;;;;;;10.07;1.90;;;19.00;99.90;;;;;;4245507;27;20234;-73
2022/04/06 07:09:19;;;;;;;7.05;1.60;;;18.90;99.90;;;;;;4242638;27;20237;-73
2022/04/06 07:11:21;;;;;;;3.70;1.65;;;19.00;99.90;;;;;;4243624;27;20633;-74
2022/04/06 07:13:23;;;;;;;3.83;1.50;;;19.10;99.90;;;;;;4242520;27;20270;-73
2022/04/06 07:15:26;;;;;;;3.20;1.50;;;19.20;99.90;;;;;;4242954;27;20270;-73
2022/04/06 07:17:29;;;;;;;3.28;1.42;;;19.30;99.90;;;;;;4240452;27;20217;-73
2022/04/06 07:19:31;;;;;;;2.70;1.45;;;19.40;99.90;;;;;;4240964;27;20241;-73
2022/04/06 07:21:34;;;;;;;2.65;1.30;;;19.60;99.90;;;;;;4238606;27;20759;-73
2022/04/06 07:23:40;;;;;;;5.03;1.58;;;19.70;99.90;;;;;;4244720;27;20613;-73
2022/04/06 07:25:42;;;;;;;4.90;1.52;;;19.70;99.90;;;;;;4243084;27;20607;-74
2022/04/06 07:27:44;;;;;;;3.45;1.40;;;19.80;99.90;;;;;;4246199;27;20210;-72
2022/04/06 07:29:47;;;;;;;3.03;1.30;;;19.80;99.90;;;;;;4243956;27;20209;-74
2022/04/06 07:31:49;;;;;;;1.90;1.17;;;19.80;99.90;;;;;;4240646;27;20247;-73
2022/04/06 07:33:52;;;;;;;3.55;1.50;;;19.90;99.90;;;;;;4249108;27;20229;-73
2022/04/06 07:35:54;;;;;;;3.90;1.40;;;20.00;99.90;;;;;;4242305;27;20216;-74
2022/04/06 07:37:57;;;;;;;3.78;1.58;;;20.00;99.90;;;;;;4237758;27;20353;-73
2022/04/06 07:40:00;;;;;;;3.25;1.48;;;20.00;99.90;;;;;;4238737;27;20237;-73
2022/04/06 07:42:04;;;;;;;7.18;1.30;;;20.10;99.90;;;;;;4245161;27;20210;-73
2022/04/06 07:44:07;;;;;;;4.57;1.60;;;20.10;99.90;;;;;;4241557;27;20214;-74
2022/04/06 07:46:09;;;;;;;5.35;1.48;;;20.00;99.90;;;;;;4243196;27;20218;-74
2022/04/06 07:48:11;;;;;;;3.22;1.40;;;20.00;99.80;;;;;;4242750;27;20246;-73
2022/04/06 07:50:15;;;;;;;4.97;1.45;;;20.10;99.90;;;;;;4238010;27;20223;-73
2022/04/06 07:52:21;;;;;;;4.25;1.48;;;20.10;99.70;;;;;;4240751;27;20270;-74
2022/04/06 07:54:24;;;;;;;3.42;1.23;;;20.10;99.80;;;;;;4243360;27;20271;-73
2022/04/06 07:56:29;;;;;;;5.68;1.67;;;20.20;99.70;;;;;;4241888;27;20218;-73
2022/04/06 07:58:32;;;;;;;2.70;1.30;;;20.20;99.70;;;;;;4243111;27;20209;-76
2022/04/06 08:00:40;;;;;;;3.58;1.27;;;20.20;99.80;;;;;;4241226;27;20233;-75
2022/04/06 08:02:44;;;;;;;4.70;1.40;;;20.20;99.90;;;;;;4242012;27;20261;-75
2022/04/06 08:04:46;;;;;;;3.58;1.50;;;20.20;99.80;;;;;;4240085;27;20255;-76
2022/04/06 08:06:48;;;;;;;3.28;1.20;;;20.20;99.80;;;;;;4240654;27;20217;-76
2022/04/06 08:08:53;;;;;;;3.40;1.38;;;20.20;99.70;;;;;;4249259;27;20301;-76
2022/04/06 08:10:55;;;;;;;6.22;1.98;;;20.30;99.80;;;;;;4243156;27;20261;-75
2022/04/06 08:12:59;;;;;;;4.60;1.90;;;20.30;99.60;;;;;;4242618;27;20251;-76
2022/04/06 08:15:01;;;;;;;2.75;1.55;;;20.30;99.60;;;;;;4240380;27;20918;-75
2022/04/06 08:17:04;;;;;;;4.40;1.40;;;20.40;99.70;;;;;;4241877;27;20213;-75
2022/04/06 08:19:06;;;;;;;2.60;1.48;;;20.30;99.60;;;;;;4237102;27;20221;-75
2022/04/06 08:21:09;;;;;;;2.85;1.30;;;20.30;99.70;;;;;;4243613;27;21056;-75
2022/04/06 08:23:11;;;;;;;2.83;1.42;;;20.40;99.60;;;;;;4241656;27;20266;-74
2022/04/06 08:25:15;;;;;;;3.90;1.38;;;20.40;99.60;;;;;;4243338;27;20221;-75
2022/04/06 08:27:19;;;;;;;3.33;1.42;;;20.50;99.50;;;;;;4241672;27;20275;-75
2022/04/06 08:29:23;;;;;;;5.72;1.73;;;20.50;99.60;;;;;;4245836;27;20224;-75
2022/04/06 08:31:25;;;;;;;5.63;1.70;;;20.50;99.70;;;;;;4241632;27;20205;-75
2022/04/06 08:33:27;;;;;;;3.08;1.60;;;20.50;99.80;;;;;;4244610;27;20245;-75
2022/04/06 08:35:30;;;;;;;3.35;1.60;;;20.40;99.80;;;;;;4240439;27;20209;-75
2022/04/06 08:37:33;;;;;;;4.65;1.55;;;20.50;99.80;;;;;;4240206;27;20213;-75
2022/04/06 08:39:36;;;;;;;4.53;1.48;;;20.50;99.50;;;;;;4242380;27;20656;-74
2022/04/06 08:41:38;;;;;;;3.58;1.30;;;20.60;99.60;;;;;;4240371;27;20270;-74
2022/04/06 08:43:41;;;;;;;2.97;1.55;;;20.60;99.50;;;;;;4245066;27;20266;-73
2022/04/06 08:45:45;;;;;;;3.55;1.45;;;20.60;99.60;;;;;;4238229;27;20205;-73
2022/04/06 08:47:49;;;;;;;4.10;1.80;;;20.60;99.20;;;;;;4239807;27;20224;-73
2022/04/06 08:49:52;;;;;;;2.63;1.20;;;20.60;99.20;;;;;;4236522;27;20210;-72
2022/04/06 08:51:55;;;;;;;4.07;1.45;;;20.60;99.40;;;;;;4236024;27;20221;-74
2022/04/06 08:53:58;;;;;;;3.50;1.63;;;20.60;99.40;;;;;;4244559;27;20221;-74
2022/04/06 08:56:02;;;;;;;5.47;1.85;;;20.60;99.40;;;;;;4238870;27;20206;-74
2022/04/06 08:58:05;;;;;;;5.63;1.80;;;20.70;99.50;;;;;;4242026;27;20217;-74
2022/04/06 09:00:10;;;;;;;4.47;1.50;;;20.70;99.40;;;;;;4244480;27;20233;-74
2022/04/06 09:02:18;;;;;;;5.07;1.75;;;20.70;99.40;;;;;;4236738;27;20875;-73
2022/04/06 09:04:21;;;;;;;2.97;1.17;;;20.60;99.20;;;;;;4241406;27;20342;-74
2022/04/06 09:06:25;;;;;;;3.63;1.65;;;20.60;99.50;;;;;;4239334;27;20715;-75
2022/04/06 09:08:35;;;;;;;3.42;1.30;;;20.70;99.50;;;;;;4240453;27;20205;-73
2022/04/06 09:10:40;;;;;;;3.08;1.60;;;20.70;99.50;;;;;;4237884;27;20214;-74
2022/04/06 09:12:42;;;;;;;3.35;1.85;;;20.80;99.50;;;;;;4243399;27;20657;-74
2022/04/06 09:14:44;;;;;;;2.42;1.40;;;20.80;99.50;;;;;;4239795;27;20718;-74
2022/04/06 09:16:47;;;;;;;5.63;1.40;;;20.90;99.60;;;;;;4239869;27;20591;-74
2022/04/06 09:18:51;;;;;;;4.13;1.52;;;20.80;99.90;;;;;;4243598;27;20313;-74
2022/04/06 09:21:00;;;;;;;3.08;1.45;;;20.80;99.60;;;;;;4236690;27;20238;-74
2022/04/06 09:23:03;;;;;;;3.20;1.42;;;20.80;99.70;;;;;;4235640;27;20289;-73
2022/04/06 09:25:07;;;;;;;4.15;1.67;;;20.90;99.80;;;;;;4228327;27;20715;-73
2022/04/06 09:27:09;;;;;;;4.35;1.55;;;20.80;99.20;;;;;;4242160;27;20267;-74
2022/04/06 09:29:14;;;;;;;4.03;1.35;;;20.90;99.20;;;;;;4234913;27;20213;-74
2022/04/06 09:31:19;;;;;;;3.65;1.50;;;20.90;99.10;;;;;;4242970;27;20201;-74
2022/04/06 09:33:21;;;;;;;4.47;1.42;;;20.90;99.20;;;;;;4235410;27;20233;-74
2022/04/06 09:35:26;;;;;;;3.85;1.80;;;20.90;99.30;;;;;;4236679;27;20209;-73
2022/04/06 09:37:31;;;;;;;4.13;1.58;;;20.80;99.30;;;;;;4234694;27;20217;-74
2022/04/06 09:39:43;;;;;;;3.60;1.55;;;20.90;99.50;;;;;;4238742;27;20617;-74
2022/04/06 09:41:59;;;;;;;5.05;1.90;;;20.90;99.40;;;;;;4231879;27;20235;-75
2022/04/06 09:44:09;;;;;;;3.05;1.40;;;21.00;99.30;;;;;;4242631;27;20217;-75
2022/04/06 09:48:59;;;;;;;2.78;1.38;;;21.00;99.10;;;;;;4241066;27;20194;-74
2022/04/06 09:51:05;;;;;;;3.83;1.52;;;21.00;99.10;;;;;;4239854;27;20209;-75
2022/04/06 09:53:08;;;;;;;2.63;1.35;;;21.00;99.10;;;;;;4240148;27;20213;-74
2022/04/06 09:55:12;;;;;;;4.15;1.25;;;21.00;99.30;;;;;;4243441;27;20663;-77
2022/04/06 09:57:14;;;;;;;2.60;1.42;;;21.00;99.40;;;;;;4242156;27;20213;-78
2022/04/06 09:59:16;;;;;;;4.50;1.73;;;21.00;99.30;;;;;;4240715;27;20201;-78
2022/04/06 10:01:19;;;;;;;5.53;1.67;;;21.00;99.30;;;;;;4239579;27;20630;-77
2022/04/06 10:03:22;;;;;;;5.28;1.77;;;21.10;99.20;;;;;;4243098;27;20266;-77
2022/04/06 10:05:26;;;;;;;4.05;1.50;;;21.00;99.20;;;;;;4240294;27;20712;-76
2022/04/06 10:07:30;;;;;;;4.68;1.30;;;21.00;99.40;;;;;;4242841;27;20677;-76
2022/04/06 10:09:33;;;;;;;2.35;1.40;;;21.00;99.30;;;;;;4241620;27;20277;-76
2022/04/06 10:11:37;;;;;;;6.07;1.42;;;21.00;99.40;;;;;;4239671;27;20593;-76
2022/04/06 10:13:40;;;;;;;5.03;1.60;;;21.00;99.30;;;;;;4240779;27;20257;-76
2022/04/06 10:15:44;;;;;;;2.67;1.20;;;21.10;99.30;;;;;;4238475;27;20221;-76
2022/04/06 10:17:46;;;;;;;3.38;1.50;;;21.10;99.40;;;;;;4240118;27;20205;-76
2022/04/06 10:19:56;;;;;;;4.70;1.67;;;21.10;99.30;;;;;;4242537;27;20245;-76
2022/04/06 10:22:05;;;;;;;3.63;1.20;;;21.10;99.40;;;;;;4234568;27;20243;-76
2022/04/06 10:24:21;;;;;;;2.67;1.30;;;21.00;99.40;;;;;;4243462;27;20261;-76
2022/04/06 10:26:36;;;;;;;3.33;1.45;;;21.00;99.40;;;;;;4240720;27;20562;-77
2022/04/06 10:28:44;;;;;;;2.58;1.20;;;21.00;99.20;;;;;;4232887;27;20769;-76
2022/04/06 10:31:18;;;;;;;3.95;1.52;;;21.10;99.10;;;;;;4238417;27;20204;-76
2022/04/06 10:33:22;;;;;;;3.42;1.45;;;21.10;99.00;;;;;;4236640;27;20716;-76
2022/04/06 10:35:27;;;;;;;2.75;1.42;;;21.10;98.90;;;;;;4239629;27;20258;-76
2022/04/06 10:37:29;;;;;;;2.95;1.70;;;21.10;99.00;;;;;;4241733;27;20217;-76
2022/04/06 10:39:58;;;;;;;3.05;1.30;;;21.10;99.00;;;;;;4245028;27;20209;-76
2022/04/06 10:42:15;;;;;;;4.03;1.50;;;21.10;99.10;;;;;;4239251;27;20236;-76
2022/04/06 10:44:43;;;;;;;2.72;1.10;;;21.10;99.10;;;;;;4241385;27;20217;-76
2022/04/06 10:46:45;;;;;;;2.47;1.20;;;21.20;99.10;;;;;;4241940;27;20269;-76
2022/04/06 10:48:58;;;;;;;5.95;1.33;;;21.20;98.70;;;;;;4237273;28;20547;-76
2022/04/06 10:51:27;;;;;;;3.47;1.40;;;21.30;98.80;;;;;;4237991;27;20258;-76